sensor_id;sensor_type;location;lat;lon;timestamp;P1;durP1;ratioP1;P2;durP2;ratioP2
75171;SDS011;63750;52.418;20.742;2023-03-23T00:01:06;42.10;;;35.70;;
75171;SDS011;63750;52.418;20.742;2023-03-23T00:03:36;43.40;;;37.20;;
75171;SDS011;63750;52.418;20.742;2023-03-23T00:06:05;43.30;;;36.50;;
75171;SDS011;63750;52.418;20.742;2023-03-23T00:08:35;41.10;;;35.70;;
75171;SDS011;63750;52.418;20.742;2023-03-23T00:11:05;42.90;;;35.50;;
75171;SDS011;63750;52.418;20.742;2023-03-23T00:13:33;41.40;;;36.30;;
75171;SDS011;63750;52.418;20.742;2023-03-23T00:16:02;42.40;;;36.80;;
75171;SDS011;63750;52.418;20.742;2023-03-23T00:18:31;41.60;;;36.60;;
75171;SDS011;63750;52.418;20.742;2023-03-23T00:20:59;43.20;;;36.60;;
75171;SDS011;63750;52.418;20.742;2023-03-23T00:23:27;42.70;;;36.20;;
75171;SDS011;63750;52.418;20.742;2023-03-23T00:25:56;46.60;;;36.30;;
75171;SDS011;63750;52.418;20.742;2023-03-23T00:28:25;42.10;;;36.60;;
75171;SDS011;63750;52.418;20.742;2023-03-23T00:30:58;41.80;;;35.10;;
75171;SDS011;63750;52.418;20.742;2023-03-23T00:33:28;43.50;;;36.70;;
75171;SDS011;63750;52.418;20.742;2023-03-23T00:35:58;40.90;;;36.50;;
75171;SDS011;63750;52.418;20.742;2023-03-23T00:38:27;43.30;;;35.20;;
75171;SDS011;63750;52.418;20.742;2023-03-23T00:40:55;42.50;;;35.90;;
75171;SDS011;63750;52.418;20.742;2023-03-23T00:43:24;42.50;;;36.50;;
75171;SDS011;63750;52.418;20.742;2023-03-23T00:45:52;43.00;;;35.70;;
75171;SDS011;63750;52.418;20.742;2023-03-23T00:48:22;44.30;;;37.40;;
75171;SDS011;63750;52.418;20.742;2023-03-23T00:50:51;43.00;;;36.30;;
75171;SDS011;63750;52.418;20.742;2023-03-23T00:53:20;41.50;;;35.60;;
75171;SDS011;63750;52.418;20.742;2023-03-23T00:55:49;41.30;;;35.60;;
75171;SDS011;63750;52.418;20.742;2023-03-23T00:58:17;42.60;;;37.00;;
75171;SDS011;63750;52.418;20.742;2023-03-23T01:00:46;42.10;;;36.20;;
75171;SDS011;63750;52.418;20.742;2023-03-23T01:03:14;44.10;;;36.00;;
75171;SDS011;63750;52.418;20.742;2023-03-23T01:05:43;45.60;;;37.40;;
75171;SDS011;63750;52.418;20.742;2023-03-23T01:08:12;41.10;;;35.80;;
75171;SDS011;63750;52.418;20.742;2023-03-23T01:10:41;41.40;;;34.70;;
75171;SDS011;63750;52.418;20.742;2023-03-23T01:13:10;43.40;;;36.10;;
75171;SDS011;63750;52.418;20.742;2023-03-23T01:15:39;41.30;;;35.60;;
75171;SDS011;63750;52.418;20.742;2023-03-23T01:18:08;40.30;;;34.70;;
75171;SDS011;63750;52.418;20.742;2023-03-23T01:20:37;39.40;;;34.50;;
75171;SDS011;63750;52.418;20.742;2023-03-23T01:23:06;38.00;;;32.30;;
75171;SDS011;63750;52.418;20.742;2023-03-23T01:25:35;40.80;;;35.00;;
75171;SDS011;63750;52.418;20.742;2023-03-23T01:28:04;40.40;;;34.80;;
75171;SDS011;63750;52.418;20.742;2023-03-23T01:30:32;40.90;;;35.20;;
75171;SDS011;63750;52.418;20.742;2023-03-23T01:33:01;38.40;;;34.20;;
75171;SDS011;63750;52.418;20.742;2023-03-23T01:35:29;38.90;;;34.30;;
75171;SDS011;63750;52.418;20.742;2023-03-23T01:37:58;40.00;;;33.90;;
75171;SDS011;63750;52.418;20.742;2023-03-23T01:40:27;39.70;;;34.00;;
75171;SDS011;63750;52.418;20.742;2023-03-23T01:42:55;38.00;;;32.40;;
75171;SDS011;63750;52.418;20.742;2023-03-23T01:45:26;38.30;;;34.10;;
75171;SDS011;63750;52.418;20.742;2023-03-23T01:47:57;37.30;;;33.30;;
75171;SDS011;63750;52.418;20.742;2023-03-23T01:50:31;40.70;;;32.80;;
75171;SDS011;63750;52.418;20.742;2023-03-23T01:53:06;37.10;;;31.70;;
75171;SDS011;63750;52.418;20.742;2023-03-23T01:55:37;37.30;;;32.30;;
75171;SDS011;63750;52.418;20.742;2023-03-23T01:58:09;40.20;;;33.60;;
75171;SDS011;63750;52.418;20.742;2023-03-23T02:00:39;38.00;;;33.10;;
75171;SDS011;63750;52.418;20.742;2023-03-23T02:03:08;39.10;;;33.00;;
75171;SDS011;63750;52.418;20.742;2023-03-23T02:05:39;37.60;;;32.60;;
75171;SDS011;63750;52.418;20.742;2023-03-23T02:08:08;35.20;;;31.40;;
75171;SDS011;63750;52.418;20.742;2023-03-23T02:10:38;36.10;;;31.80;;
75171;SDS011;63750;52.418;20.742;2023-03-23T02:13:08;39.20;;;32.30;;
75171;SDS011;63750;52.418;20.742;2023-03-23T02:15:42;37.80;;;31.80;;
75171;SDS011;63750;52.418;20.742;2023-03-23T02:18:22;35.80;;;31.90;;
75171;SDS011;63750;52.418;20.742;2023-03-23T02:21:13;36.80;;;31.90;;
75171;SDS011;63750;52.418;20.742;2023-03-23T02:24:06;36.60;;;31.80;;
75171;SDS011;63750;52.418;20.742;2023-03-23T02:26:48;34.80;;;30.80;;
75171;SDS011;63750;52.418;20.742;2023-03-23T02:29:39;37.30;;;32.00;;
75171;SDS011;63750;52.418;20.742;2023-03-23T02:32:37;39.00;;;31.90;;
75171;SDS011;63750;52.418;20.742;2023-03-23T02:35:18;37.30;;;31.10;;
75171;SDS011;63750;52.418;20.742;2023-03-23T02:37:51;33.50;;;29.70;;
75171;SDS011;63750;52.418;20.742;2023-03-23T02:40:25;34.10;;;30.10;;
75171;SDS011;63750;52.418;20.742;2023-03-23T02:42:59;34.60;;;30.90;;
75171;SDS011;63750;52.418;20.742;2023-03-23T02:45:29;37.10;;;31.40;;
75171;SDS011;63750;52.418;20.742;2023-03-23T02:48:00;38.40;;;31.20;;
75171;SDS011;63750;52.418;20.742;2023-03-23T02:50:32;36.80;;;30.40;;
75171;SDS011;63750;52.418;20.742;2023-03-23T02:53:02;37.60;;;31.50;;
75171;SDS011;63750;52.418;20.742;2023-03-23T02:55:34;35.20;;;30.20;;
75171;SDS011;63750;52.418;20.742;2023-03-23T02:58:04;36.20;;;31.40;;
75171;SDS011;63750;52.418;20.742;2023-03-23T03:00:32;34.90;;;30.90;;
75171;SDS011;63750;52.418;20.742;2023-03-23T03:03:01;36.20;;;31.40;;
75171;SDS011;63750;52.418;20.742;2023-03-23T03:05:33;35.30;;;31.50;;
75171;SDS011;63750;52.418;20.742;2023-03-23T03:08:09;38.40;;;31.50;;
75171;SDS011;63750;52.418;20.742;2023-03-23T03:10:43;36.80;;;31.90;;
75171;SDS011;63750;52.418;20.742;2023-03-23T03:13:19;37.10;;;31.70;;
75171;SDS011;63750;52.418;20.742;2023-03-23T03:15:57;38.60;;;32.20;;
75171;SDS011;63750;52.418;20.742;2023-03-23T03:18:33;35.10;;;31.30;;
75171;SDS011;63750;52.418;20.742;2023-03-23T03:21:06;36.80;;;31.20;;
75171;SDS011;63750;52.418;20.742;2023-03-23T03:23:40;34.20;;;30.50;;
75171;SDS011;63750;52.418;20.742;2023-03-23T03:26:11;37.90;;;32.60;;
75171;SDS011;63750;52.418;20.742;2023-03-23T03:28:42;34.60;;;30.90;;
75171;SDS011;63750;52.418;20.742;2023-03-23T03:31:13;34.70;;;30.70;;
75171;SDS011;63750;52.418;20.742;2023-03-23T03:33:45;36.70;;;31.40;;
75171;SDS011;63750;52.418;20.742;2023-03-23T03:36:16;36.10;;;31.90;;
75171;SDS011;63750;52.418;20.742;2023-03-23T03:38:49;34.80;;;31.10;;
75171;SDS011;63750;52.418;20.742;2023-03-23T03:41:18;37.00;;;30.60;;
75171;SDS011;63750;52.418;20.742;2023-03-23T03:43:47;36.40;;;31.50;;
75171;SDS011;63750;52.418;20.742;2023-03-23T03:46:16;36.20;;;31.50;;
75171;SDS011;63750;52.418;20.742;2023-03-23T03:48:44;37.20;;;32.50;;
75171;SDS011;63750;52.418;20.742;2023-03-23T03:51:12;36.60;;;32.20;;
75171;SDS011;63750;52.418;20.742;2023-03-23T03:53:41;36.10;;;31.40;;
75171;SDS011;63750;52.418;20.742;2023-03-23T03:56:10;35.60;;;31.60;;
75171;SDS011;63750;52.418;20.742;2023-03-23T03:58:38;37.90;;;31.60;;
75171;SDS011;63750;52.418;20.742;2023-03-23T04:01:07;35.90;;;31.40;;
75171;SDS011;63750;52.418;20.742;2023-03-23T04:03:37;34.80;;;31.10;;
75171;SDS011;63750;52.418;20.742;2023-03-23T04:06:05;36.80;;;32.00;;
75171;SDS011;63750;52.418;20.742;2023-03-23T04:08:35;36.20;;;31.10;;
75171;SDS011;63750;52.418;20.742;2023-03-23T04:11:04;36.60;;;32.10;;
75171;SDS011;63750;52.418;20.742;2023-03-23T04:13:32;36.30;;;31.90;;
75171;SDS011;63750;52.418;20.742;2023-03-23T04:16:01;34.60;;;30.60;;
75171;SDS011;63750;52.418;20.742;2023-03-23T04:18:31;35.90;;;32.20;;
75171;SDS011;63750;52.418;20.742;2023-03-23T04:21:00;35.10;;;30.00;;
75171;SDS011;63750;52.418;20.742;2023-03-23T04:23:30;36.80;;;31.40;;
75171;SDS011;63750;52.418;20.742;2023-03-23T04:26:00;34.40;;;30.70;;
75171;SDS011;63750;52.418;20.742;2023-03-23T04:28:29;36.30;;;31.60;;
75171;SDS011;63750;52.418;20.742;2023-03-23T04:30:58;38.30;;;31.90;;
75171;SDS011;63750;52.418;20.742;2023-03-23T04:33:28;38.80;;;32.90;;
75171;SDS011;63750;52.418;20.742;2023-03-23T04:35:59;36.60;;;32.10;;
75171;SDS011;63750;52.418;20.742;2023-03-23T04:38:28;37.20;;;33.10;;
75171;SDS011;63750;52.418;20.742;2023-03-23T04:40:56;35.90;;;32.20;;
75171;SDS011;63750;52.418;20.742;2023-03-23T04:43:25;37.00;;;32.60;;
75171;SDS011;63750;52.418;20.742;2023-03-23T04:45:54;35.80;;;31.90;;
75171;SDS011;63750;52.418;20.742;2023-03-23T04:48:24;37.10;;;32.30;;
75171;SDS011;63750;52.418;20.742;2023-03-23T04:50:54;35.80;;;31.90;;
75171;SDS011;63750;52.418;20.742;2023-03-23T04:53:23;36.90;;;31.50;;
75171;SDS011;63750;52.418;20.742;2023-03-23T04:55:51;38.20;;;33.50;;
75171;SDS011;63750;52.418;20.742;2023-03-23T04:58:20;40.10;;;35.30;;
75171;SDS011;63750;52.418;20.742;2023-03-23T05:00:48;38.90;;;34.40;;
75171;SDS011;63750;52.418;20.742;2023-03-23T05:03:17;40.00;;;35.40;;
75171;SDS011;63750;52.418;20.742;2023-03-23T05:05:46;39.20;;;34.20;;
75171;SDS011;63750;52.418;20.742;2023-03-23T05:08:15;40.30;;;34.70;;
75171;SDS011;63750;52.418;20.742;2023-03-23T05:10:45;37.40;;;33.50;;
75171;SDS011;63750;52.418;20.742;2023-03-23T05:13:18;37.80;;;33.80;;
75171;SDS011;63750;52.418;20.742;2023-03-23T05:15:47;38.80;;;33.80;;
75171;SDS011;63750;52.418;20.742;2023-03-23T05:18:16;36.60;;;32.20;;
75171;SDS011;63750;52.418;20.742;2023-03-23T05:20:44;35.50;;;31.70;;
75171;SDS011;63750;52.418;20.742;2023-03-23T05:23:13;35.10;;;31.20;;
75171;SDS011;63750;52.418;20.742;2023-03-23T05:25:41;39.10;;;31.70;;
75171;SDS011;63750;52.418;20.742;2023-03-23T05:28:10;34.40;;;30.70;;
75171;SDS011;63750;52.418;20.742;2023-03-23T05:30:39;34.20;;;30.50;;
75171;SDS011;63750;52.418;20.742;2023-03-23T05:33:07;34.60;;;29.60;;
75171;SDS011;63750;52.418;20.742;2023-03-23T05:35:36;34.70;;;29.20;;
75171;SDS011;63750;52.418;20.742;2023-03-23T05:38:04;33.10;;;29.50;;
75171;SDS011;63750;52.418;20.742;2023-03-23T05:40:33;33.30;;;29.00;;
75171;SDS011;63750;52.418;20.742;2023-03-23T05:43:01;32.80;;;27.40;;
75171;SDS011;63750;52.418;20.742;2023-03-23T05:45:30;31.60;;;28.30;;
75171;SDS011;63750;52.418;20.742;2023-03-23T05:47:58;32.10;;;28.70;;
75171;SDS011;63750;52.418;20.742;2023-03-23T05:50:27;31.80;;;28.30;;
75171;SDS011;63750;52.418;20.742;2023-03-23T05:52:56;30.30;;;27.00;;
75171;SDS011;63750;52.418;20.742;2023-03-23T05:55:24;29.30;;;26.00;;
75171;SDS011;63750;52.418;20.742;2023-03-23T05:57:53;34.20;;;28.80;;
75171;SDS011;63750;52.418;20.742;2023-03-23T06:00:22;32.00;;;26.20;;
75171;SDS011;63750;52.418;20.742;2023-03-23T06:02:53;31.20;;;26.50;;
75171;SDS011;63750;52.418;20.742;2023-03-23T06:05:23;29.40;;;25.80;;
75171;SDS011;63750;52.418;20.742;2023-03-23T06:07:52;30.10;;;25.90;;
75171;SDS011;63750;52.418;20.742;2023-03-23T06:10:21;27.60;;;24.60;;
75171;SDS011;63750;52.418;20.742;2023-03-23T06:12:49;28.80;;;25.70;;
75171;SDS011;63750;52.418;20.742;2023-03-23T06:15:18;27.40;;;24.50;;
75171;SDS011;63750;52.418;20.742;2023-03-23T06:17:46;28.20;;;24.80;;
75171;SDS011;63750;52.418;20.742;2023-03-23T06:20:15;28.00;;;25.00;;
75171;SDS011;63750;52.418;20.742;2023-03-23T06:22:44;27.90;;;25.00;;
75171;SDS011;63750;52.418;20.742;2023-03-23T06:25:12;27.30;;;23.50;;
75171;SDS011;63750;52.418;20.742;2023-03-23T06:27:41;26.50;;;23.00;;
75171;SDS011;63750;52.418;20.742;2023-03-23T06:30:10;30.70;;;24.00;;
75171;SDS011;63750;52.418;20.742;2023-03-23T06:32:39;29.10;;;22.30;;
75171;SDS011;63750;52.418;20.742;2023-03-23T06:35:09;26.10;;;22.00;;
75171;SDS011;63750;52.418;20.742;2023-03-23T06:37:37;24.20;;;20.40;;
75171;SDS011;63750;52.418;20.742;2023-03-23T06:40:07;23.30;;;20.90;;
75171;SDS011;63750;52.418;20.742;2023-03-23T06:42:36;22.50;;;20.10;;
75171;SDS011;63750;52.418;20.742;2023-03-23T06:45:06;24.20;;;20.80;;
75171;SDS011;63750;52.418;20.742;2023-03-23T06:47:35;24.20;;;20.10;;
75171;SDS011;63750;52.418;20.742;2023-03-23T06:50:05;25.40;;;20.90;;
75171;SDS011;63750;52.418;20.742;2023-03-23T06:52:35;22.00;;;19.50;;
75171;SDS011;63750;52.418;20.742;2023-03-23T06:55:04;24.50;;;19.90;;
75171;SDS011;63750;52.418;20.742;2023-03-23T06:57:33;21.80;;;18.80;;
75171;SDS011;63750;52.418;20.742;2023-03-23T07:00:02;20.30;;;18.20;;
75171;SDS011;63750;52.418;20.742;2023-03-23T07:02:31;22.80;;;18.90;;
75171;SDS011;63750;52.418;20.742;2023-03-23T07:05:00;20.70;;;18.50;;
75171;SDS011;63750;52.418;20.742;2023-03-23T07:07:28;19.20;;;17.20;;
75171;SDS011;63750;52.418;20.742;2023-03-23T07:09:57;20.60;;;17.90;;
75171;SDS011;63750;52.418;20.742;2023-03-23T07:12:26;21.20;;;17.80;;
75171;SDS011;63750;52.418;20.742;2023-03-23T07:14:54;19.10;;;17.10;;
75171;SDS011;63750;52.418;20.742;2023-03-23T07:17:23;19.20;;;17.30;;
75171;SDS011;63750;52.418;20.742;2023-03-23T07:19:51;18.80;;;16.80;;
75171;SDS011;63750;52.418;20.742;2023-03-23T07:22:20;17.70;;;15.80;;
75171;SDS011;63750;52.418;20.742;2023-03-23T07:24:49;17.90;;;16.10;;
75171;SDS011;63750;52.418;20.742;2023-03-23T07:27:17;18.70;;;16.60;;
75171;SDS011;63750;52.418;20.742;2023-03-23T07:29:45;18.60;;;16.70;;
75171;SDS011;63750;52.418;20.742;2023-03-23T07:32:14;18.10;;;16.20;;
75171;SDS011;63750;52.418;20.742;2023-03-23T07:34:43;18.10;;;16.20;;
75171;SDS011;63750;52.418;20.742;2023-03-23T07:37:11;18.20;;;16.20;;
75171;SDS011;63750;52.418;20.742;2023-03-23T07:39:40;17.10;;;15.10;;
75171;SDS011;63750;52.418;20.742;2023-03-23T07:42:09;17.20;;;15.40;;
75171;SDS011;63750;52.418;20.742;2023-03-23T07:44:37;16.10;;;14.50;;
75171;SDS011;63750;52.418;20.742;2023-03-23T07:47:06;16.20;;;14.60;;
75171;SDS011;63750;52.418;20.742;2023-03-23T07:49:35;14.80;;;13.40;;
75171;SDS011;63750;52.418;20.742;2023-03-23T07:52:04;16.10;;;13.80;;
75171;SDS011;63750;52.418;20.742;2023-03-23T07:54:32;13.80;;;12.40;;
75171;SDS011;63750;52.418;20.742;2023-03-23T07:57:01;14.50;;;13.00;;
75171;SDS011;63750;52.418;20.742;2023-03-23T07:59:30;14.80;;;13.10;;
75171;SDS011;63750;52.418;20.742;2023-03-23T08:01:58;13.50;;;12.20;;
75171;SDS011;63750;52.418;20.742;2023-03-23T08:04:27;13.20;;;11.80;;
75171;SDS011;63750;52.418;20.742;2023-03-23T08:06:55;13.50;;;12.10;;
75171;SDS011;63750;52.418;20.742;2023-03-23T08:09:24;12.90;;;11.60;;
75171;SDS011;63750;52.418;20.742;2023-03-23T08:11:52;13.80;;;12.40;;
75171;SDS011;63750;52.418;20.742;2023-03-23T08:14:21;13.40;;;12.10;;
75171;SDS011;63750;52.418;20.742;2023-03-23T08:16:50;12.00;;;10.90;;
75171;SDS011;63750;52.418;20.742;2023-03-23T08:19:19;14.40;;;12.90;;
75171;SDS011;63750;52.418;20.742;2023-03-23T08:21:47;12.70;;;11.40;;
75171;SDS011;63750;52.418;20.742;2023-03-23T08:24:16;13.80;;;12.30;;
75171;SDS011;63750;52.418;20.742;2023-03-23T08:26:45;14.70;;;11.80;;
75171;SDS011;63750;52.418;20.742;2023-03-23T08:29:13;13.20;;;11.80;;
75171;SDS011;63750;52.418;20.742;2023-03-23T08:31:42;12.90;;;10.90;;
75171;SDS011;63750;52.418;20.742;2023-03-23T08:34:11;12.80;;;11.50;;
75171;SDS011;63750;52.418;20.742;2023-03-23T08:36:39;13.40;;;11.50;;
75171;SDS011;63750;52.418;20.742;2023-03-23T08:39:08;12.50;;;11.30;;
75171;SDS011;63750;52.418;20.742;2023-03-23T08:41:37;12.30;;;11.10;;
75171;SDS011;63750;52.418;20.742;2023-03-23T08:44:05;12.40;;;10.80;;
75171;SDS011;63750;52.418;20.742;2023-03-23T08:46:34;12.10;;;10.90;;
75171;SDS011;63750;52.418;20.742;2023-03-23T08:49:03;13.80;;;12.40;;
75171;SDS011;63750;52.418;20.742;2023-03-23T08:51:31;12.70;;;11.20;;
75171;SDS011;63750;52.418;20.742;2023-03-23T08:54:00;12.30;;;11.00;;
75171;SDS011;63750;52.418;20.742;2023-03-23T08:56:29;12.50;;;11.20;;
75171;SDS011;63750;52.418;20.742;2023-03-23T08:58:57;12.90;;;11.60;;
75171;SDS011;63750;52.418;20.742;2023-03-23T09:01:26;13.10;;;11.80;;
75171;SDS011;63750;52.418;20.742;2023-03-23T09:03:54;13.00;;;11.60;;
75171;SDS011;63750;52.418;20.742;2023-03-23T09:06:22;12.70;;;11.40;;
75171;SDS011;63750;52.418;20.742;2023-03-23T09:08:51;12.00;;;10.90;;
75171;SDS011;63750;52.418;20.742;2023-03-23T09:11:20;12.30;;;10.90;;
75171;SDS011;63750;52.418;20.742;2023-03-23T09:13:49;12.70;;;11.40;;
75171;SDS011;63750;52.418;20.742;2023-03-23T09:16:17;11.70;;;10.50;;
75171;SDS011;63750;52.418;20.742;2023-03-23T09:18:46;12.20;;;11.10;;
75171;SDS011;63750;52.418;20.742;2023-03-23T09:21:14;13.20;;;11.90;;
75171;SDS011;63750;52.418;20.742;2023-03-23T09:23:43;12.00;;;10.80;;
75171;SDS011;63750;52.418;20.742;2023-03-23T09:26:11;13.00;;;11.80;;
75171;SDS011;63750;52.418;20.742;2023-03-23T09:28:40;13.70;;;12.00;;
75171;SDS011;63750;52.418;20.742;2023-03-23T09:31:08;13.70;;;12.30;;
75171;SDS011;63750;52.418;20.742;2023-03-23T09:33:37;12.90;;;11.60;;
75171;SDS011;63750;52.418;20.742;2023-03-23T09:36:06;12.20;;;11.20;;
75171;SDS011;63750;52.418;20.742;2023-03-23T09:38:35;13.50;;;11.20;;
75171;SDS011;63750;52.418;20.742;2023-03-23T09:41:15;12.20;;;10.90;;
75171;SDS011;63750;52.418;20.742;2023-03-23T09:44:01;11.90;;;10.90;;
75171;SDS011;63750;52.418;20.742;2023-03-23T09:46:40;11.20;;;10.10;;
75171;SDS011;63750;52.418;20.742;2023-03-23T09:49:17;12.20;;;9.70;;
75171;SDS011;63750;52.418;20.742;2023-03-23T09:51:49;11.30;;;9.70;;
75171;SDS011;63750;52.418;20.742;2023-03-23T09:54:22;10.30;;;9.20;;
75171;SDS011;63750;52.418;20.742;2023-03-23T09:56:54;11.40;;;9.40;;
75171;SDS011;63750;52.418;20.742;2023-03-23T09:59:27;9.70;;;8.70;;
75171;SDS011;63750;52.418;20.742;2023-03-23T10:01:59;9.90;;;8.90;;
75171;SDS011;63750;52.418;20.742;2023-03-23T10:04:44;10.70;;;9.00;;
75171;SDS011;63750;52.418;20.742;2023-03-23T10:07:15;9.50;;;8.50;;
75171;SDS011;63750;52.418;20.742;2023-03-23T10:09:45;8.90;;;8.00;;
75171;SDS011;63750;52.418;20.742;2023-03-23T10:12:24;9.20;;;8.30;;
75171;SDS011;63750;52.418;20.742;2023-03-23T10:15:04;8.50;;;7.70;;
75171;SDS011;63750;52.418;20.742;2023-03-23T10:17:41;8.70;;;7.50;;
75171;SDS011;63750;52.418;20.742;2023-03-23T10:20:19;8.30;;;7.50;;
75171;SDS011;63750;52.418;20.742;2023-03-23T10:22:53;8.00;;;7.20;;
75171;SDS011;63750;52.418;20.742;2023-03-23T10:25:28;7.80;;;7.10;;
75171;SDS011;63750;52.418;20.742;2023-03-23T10:28:01;7.70;;;6.90;;
75171;SDS011;63750;52.418;20.742;2023-03-23T10:30:37;8.20;;;7.40;;
75171;SDS011;63750;52.418;20.742;2023-03-23T10:33:10;7.10;;;6.50;;
75171;SDS011;63750;52.418;20.742;2023-03-23T10:35:44;6.70;;;6.10;;
75171;SDS011;63750;52.418;20.742;2023-03-23T10:38:16;8.00;;;6.10;;
75171;SDS011;63750;52.418;20.742;2023-03-23T10:40:49;7.70;;;6.80;;
75171;SDS011;63750;52.418;20.742;2023-03-23T10:43:21;9.80;;;5.60;;
75171;SDS011;63750;52.418;20.742;2023-03-23T10:45:53;7.10;;;6.40;;
75171;SDS011;63750;52.418;20.742;2023-03-23T10:48:25;6.00;;;5.40;;
75171;SDS011;63750;52.418;20.742;2023-03-23T10:50:56;7.10;;;6.10;;
75171;SDS011;63750;52.418;20.742;2023-03-23T10:53:28;7.50;;;6.70;;
75171;SDS011;63750;52.418;20.742;2023-03-23T10:55:59;8.30;;;7.50;;
75171;SDS011;63750;52.418;20.742;2023-03-23T10:58:29;7.50;;;6.80;;
75171;SDS011;63750;52.418;20.742;2023-03-23T11:00:59;7.90;;;7.20;;
75171;SDS011;63750;52.418;20.742;2023-03-23T11:03:33;8.50;;;7.70;;
75171;SDS011;63750;52.418;20.742;2023-03-23T11:06:07;8.00;;;7.00;;
75171;SDS011;63750;52.418;20.742;2023-03-23T11:08:47;7.50;;;6.40;;
75171;SDS011;63750;52.418;20.742;2023-03-23T11:11:19;6.70;;;6.10;;
75171;SDS011;63750;52.418;20.742;2023-03-23T11:13:56;6.60;;;6.00;;
75171;SDS011;63750;52.418;20.742;2023-03-23T11:16:27;7.00;;;5.50;;
75171;SDS011;63750;52.418;20.742;2023-03-23T11:18:58;5.50;;;4.90;;
75171;SDS011;63750;52.418;20.742;2023-03-23T11:21:38;5.40;;;4.90;;
75171;SDS011;63750;52.418;20.742;2023-03-23T11:24:12;6.30;;;5.70;;
75171;SDS011;63750;52.418;20.742;2023-03-23T11:26:41;7.90;;;5.40;;
75171;SDS011;63750;52.418;20.742;2023-03-23T11:29:12;5.90;;;5.10;;
75171;SDS011;63750;52.418;20.742;2023-03-23T11:31:44;5.90;;;5.30;;
75171;SDS011;63750;52.418;20.742;2023-03-23T11:34:15;5.90;;;5.00;;
75171;SDS011;63750;52.418;20.742;2023-03-23T11:36:48;6.60;;;5.90;;
75171;SDS011;63750;52.418;20.742;2023-03-23T11:39:24;6.10;;;5.50;;
75171;SDS011;63750;52.418;20.742;2023-03-23T11:41:54;6.20;;;5.60;;
75171;SDS011;63750;52.418;20.742;2023-03-23T11:44:33;6.50;;;5.90;;
75171;SDS011;63750;52.418;20.742;2023-03-23T11:47:10;6.20;;;5.60;;
75171;SDS011;63750;52.418;20.742;2023-03-23T11:49:49;6.20;;;5.70;;
75171;SDS011;63750;52.418;20.742;2023-03-23T11:52:24;6.10;;;5.50;;
75171;SDS011;63750;52.418;20.742;2023-03-23T11:55:00;5.60;;;5.10;;
75171;SDS011;63750;52.418;20.742;2023-03-23T11:57:35;5.80;;;5.30;;
75171;SDS011;63750;52.418;20.742;2023-03-23T12:05:39;5.80;;;4.90;;
75171;SDS011;63750;52.418;20.742;2023-03-23T12:08:22;4.60;;;4.20;;
75171;SDS011;63750;52.418;20.742;2023-03-23T12:11:06;5.20;;;3.50;;
75171;SDS011;63750;52.418;20.742;2023-03-23T12:13:46;4.30;;;3.40;;
75171;SDS011;63750;52.418;20.742;2023-03-23T12:16:23;4.70;;;3.40;;
75171;SDS011;63750;52.418;20.742;2023-03-23T12:19:03;3.60;;;3.30;;
75171;SDS011;63750;52.418;20.742;2023-03-23T12:21:39;3.90;;;3.50;;
75171;SDS011;63750;52.418;20.742;2023-03-23T12:24:15;4.10;;;3.60;;
75171;SDS011;63750;52.418;20.742;2023-03-23T12:26:52;5.20;;;4.50;;
75171;SDS011;63750;52.418;20.742;2023-03-23T12:35:04;4.10;;;3.70;;
75171;SDS011;63750;52.418;20.742;2023-03-23T12:37:45;3.60;;;3.10;;
75171;SDS011;63750;52.418;20.742;2023-03-23T12:40:32;3.70;;;2.80;;
75171;SDS011;63750;52.418;20.742;2023-03-23T12:43:18;3.60;;;3.30;;
75171;SDS011;63750;52.418;20.742;2023-03-23T12:45:59;3.60;;;3.30;;
75171;SDS011;63750;52.418;20.742;2023-03-23T12:48:40;4.70;;;3.30;;
75171;SDS011;63750;52.418;20.742;2023-03-23T12:51:14;3.90;;;3.50;;
75171;SDS011;63750;52.418;20.742;2023-03-23T12:53:49;3.50;;;3.20;;
75171;SDS011;63750;52.418;20.742;2023-03-23T12:56:23;4.30;;;3.40;;
75171;SDS011;63750;52.418;20.742;2023-03-23T12:58:59;4.40;;;3.50;;
75171;SDS011;63750;52.418;20.742;2023-03-23T13:01:34;3.60;;;3.30;;
75171;SDS011;63750;52.418;20.742;2023-03-23T13:04:06;4.20;;;3.80;;
75171;SDS011;63750;52.418;20.742;2023-03-23T13:06:38;3.80;;;3.50;;
75171;SDS011;63750;52.418;20.742;2023-03-23T13:09:11;3.90;;;3.60;;
75171;SDS011;63750;52.418;20.742;2023-03-23T13:11:43;4.20;;;3.50;;
75171;SDS011;63750;52.418;20.742;2023-03-23T13:14:18;3.60;;;3.30;;
75171;SDS011;63750;52.418;20.742;2023-03-23T13:16:58;4.90;;;4.10;;
75171;SDS011;63750;52.418;20.742;2023-03-23T13:19:34;4.10;;;3.80;;
75171;SDS011;63750;52.418;20.742;2023-03-23T13:22:17;3.80;;;3.50;;
75171;SDS011;63750;52.418;20.742;2023-03-23T13:24:52;4.60;;;3.80;;
75171;SDS011;63750;52.418;20.742;2023-03-23T13:27:24;4.30;;;3.90;;
75171;SDS011;63750;52.418;20.742;2023-03-23T13:29:54;4.30;;;3.90;;
75171;SDS011;63750;52.418;20.742;2023-03-23T13:32:34;4.50;;;4.20;;
75171;SDS011;63750;52.418;20.742;2023-03-23T13:35:13;4.60;;;4.20;;
75171;SDS011;63750;52.418;20.742;2023-03-23T13:37:45;5.60;;;4.90;;
75171;SDS011;63750;52.418;20.742;2023-03-23T13:40:19;5.00;;;4.50;;
75171;SDS011;63750;52.418;20.742;2023-03-23T13:42:52;8.30;;;5.60;;
75171;SDS011;63750;52.418;20.742;2023-03-23T13:45:24;8.60;;;4.90;;
75171;SDS011;63750;52.418;20.742;2023-03-23T13:48:19;6.40;;;4.90;;
75171;SDS011;63750;52.418;20.742;2023-03-23T13:50:53;5.40;;;4.90;;
75171;SDS011;63750;52.418;20.742;2023-03-23T13:53:24;5.50;;;5.00;;
75171;SDS011;63750;52.418;20.742;2023-03-23T13:56:06;6.10;;;5.40;;
75171;SDS011;63750;52.418;20.742;2023-03-23T13:58:48;6.80;;;5.40;;
75171;SDS011;63750;52.418;20.742;2023-03-23T14:01:19;6.50;;;5.90;;
75171;SDS011;63750;52.418;20.742;2023-03-23T14:03:59;6.80;;;5.80;;
75171;SDS011;63750;52.418;20.742;2023-03-23T14:06:34;5.20;;;4.70;;
75171;SDS011;63750;52.418;20.742;2023-03-23T14:09:06;6.10;;;5.50;;
75171;SDS011;63750;52.418;20.742;2023-03-23T14:11:45;8.30;;;5.40;;
75171;SDS011;63750;52.418;20.742;2023-03-23T14:14:25;6.00;;;5.40;;
75171;SDS011;63750;52.418;20.742;2023-03-23T14:17:06;6.90;;;5.70;;
75171;SDS011;63750;52.418;20.742;2023-03-23T14:19:39;7.00;;;5.60;;
75171;SDS011;63750;52.418;20.742;2023-03-23T14:22:18;5.80;;;5.20;;
75171;SDS011;63750;52.418;20.742;2023-03-23T14:24:50;6.30;;;5.70;;
75171;SDS011;63750;52.418;20.742;2023-03-23T14:27:20;6.30;;;5.60;;
75171;SDS011;63750;52.418;20.742;2023-03-23T14:29:58;6.40;;;5.80;;
75171;SDS011;63750;52.418;20.742;2023-03-23T14:32:29;5.70;;;5.20;;
75171;SDS011;63750;52.418;20.742;2023-03-23T14:34:58;8.30;;;6.40;;
75171;SDS011;63750;52.418;20.742;2023-03-23T14:37:33;8.20;;;7.10;;
75171;SDS011;63750;52.418;20.742;2023-03-23T14:40:02;10.50;;;8.20;;
75171;SDS011;63750;52.418;20.742;2023-03-23T14:42:35;10.10;;;9.00;;
75171;SDS011;63750;52.418;20.742;2023-03-23T14:45:05;10.50;;;9.40;;
75171;SDS011;63750;52.418;20.742;2023-03-23T14:47:40;9.60;;;8.10;;
75171;SDS011;63750;52.418;20.742;2023-03-23T14:50:22;8.90;;;8.00;;
75171;SDS011;63750;52.418;20.742;2023-03-23T14:52:53;8.60;;;7.80;;